createdAt,value
2022-09-07T00:00:09.618Z,74.10
2022-09-07T00:02:36.447Z,74.18
2022-09-07T00:05:03.397Z,74.47
2022-09-07T00:07:30.739Z,74.86
2022-09-07T00:09:57.528Z,75.13
2022-09-07T00:12:24.436Z,75.25
2022-09-07T00:14:51.254Z,74.40
2022-09-07T00:17:18.073Z,74.53
2022-09-07T00:19:44.892Z,74.79
2022-09-07T00:22:11.648Z,74.80
2022-09-07T00:24:38.445Z,75.12
2022-09-07T00:27:05.437Z,74.54
2022-09-07T00:29:32.233Z,74.43
2022-09-07T00:31:59.071Z,74.47
2022-09-07T00:34:25.918Z,74.18
2022-09-07T00:36:52.738Z,74.26
2022-09-07T00:39:19.536Z,74.25
2022-09-07T00:41:46.424Z,74.71
2022-09-07T00:44:38.128Z,74.52
2022-09-07T00:47:09.896Z,74.74
2022-09-07T00:49:38.605Z,75.09
2022-09-07T00:52:10.109Z,75.66
2022-09-07T00:54:44.793Z,75.81
2022-09-07T00:57:12.082Z,75.63
2022-09-07T00:59:45.588Z,75.67
2022-09-07T01:02:14.806Z,75.97
2022-09-07T01:04:42.136Z,75.69
2022-09-07T01:07:09.095Z,75.76
2022-09-07T01:09:36.590Z,75.63
2022-09-07T01:12:04.775Z,75.10
2022-09-07T01:14:46.204Z,75.12
2022-09-07T01:17:39.813Z,74.94
2022-09-07T01:20:29.970Z,75.50
2022-09-07T01:23:25.759Z,75.50
2022-09-07T01:26:16.772Z,75.65
2022-09-07T01:28:47.362Z,75.35
2022-09-07T01:31:21.415Z,75.94
2022-09-07T01:33:54.449Z,76.69
2022-09-07T01:36:37.272Z,76.25
2022-09-07T01:39:05.759Z,76.34
2022-09-07T01:41:52.450Z,76.61
2022-09-07T01:44:28.664Z,75.73
2022-09-07T01:47:21.846Z,75.52
2022-09-07T01:49:55.270Z,75.73
2022-09-07T01:52:42.655Z,75.69
2022-09-07T01:55:19.323Z,75.57
2022-09-07T01:57:54.758Z,76.31
2022-09-07T02:00:21.616Z,77.25
2022-09-07T02:02:58.674Z,78.08
2022-09-07T02:05:36.278Z,78.82
2022-09-07T02:08:14.243Z,78.75
2022-09-07T02:10:55.923Z,78.92
2022-09-07T02:13:46.262Z,79.29
2022-09-07T02:16:19.510Z,78.15
2022-09-07T02:18:50.036Z,78.27
2022-09-07T02:21:22.098Z,77.42
2022-09-07T02:23:57.078Z,77.34
2022-09-07T02:26:28.104Z,77.67
2022-09-07T02:28:55.762Z,77.20
2022-09-07T02:31:23.288Z,77.08
2022-09-07T02:33:50.287Z,77.02
2022-09-07T02:36:21.515Z,77.57
2022-09-07T02:38:48.381Z,77.77
2022-09-07T02:41:47.673Z,77.99
2022-09-07T02:44:37.194Z,78.44
2022-09-07T02:47:09.802Z,78.14
2022-09-07T02:50:11.225Z,78.16
2022-09-07T02:52:59.307Z,78.28
2022-09-07T02:55:38.000Z,77.74
2022-09-07T02:58:38.373Z,77.54
2022-09-07T03:01:17.210Z,78.08
2022-09-07T03:03:44.046Z,78.43
2022-09-07T03:06:23.463Z,78.62
2022-09-07T03:08:54.656Z,79.08
2022-09-07T03:11:22.589Z,79.21
2022-09-07T03:13:49.373Z,79.41
2022-09-07T03:16:16.714Z,79.68
2022-09-07T03:18:45.097Z,79.62
2022-09-07T03:21:12.147Z,80.08
2022-09-07T03:23:39.238Z,79.95
2022-09-07T03:26:06.357Z,79.91
2022-09-07T03:28:33.191Z,79.46
2022-09-07T03:31:02.139Z,79.34
2022-09-07T03:33:29.128Z,79.65
2022-09-07T03:36:02.486Z,79.51
2022-09-07T03:38:31.273Z,79.74
2022-09-07T03:41:02.089Z,80.13
2022-09-07T03:43:29.845Z,80.20
2022-09-07T03:46:02.954Z,80.17
2022-09-07T03:48:34.578Z,80.76
2022-09-07T03:51:09.873Z,80.73
2022-09-07T03:53:39.688Z,80.91
2022-09-07T03:56:16.098Z,80.62
2022-09-07T03:58:42.896Z,80.58
2022-09-07T04:01:12.943Z,80.77
2022-09-07T04:03:39.924Z,81.51
2022-09-07T04:06:07.072Z,81.33
2022-09-07T04:08:35.547Z,81.47
2022-09-07T04:11:04.293Z,81.41
2022-09-07T04:13:32.652Z,81.54
2022-09-07T04:15:59.430Z,81.99
2022-09-07T04:18:26.539Z,82.18
2022-09-07T04:20:53.327Z,82.71
2022-09-07T04:23:20.629Z,82.47
2022-09-07T04:25:48.961Z,82.59
2022-09-07T04:28:16.922Z,82.71
2022-09-07T04:30:43.801Z,82.65
2022-09-07T04:33:11.285Z,82.29
2022-09-07T04:35:39.501Z,81.86
2022-09-07T04:38:07.380Z,81.55
2022-09-07T04:40:36.125Z,80.59
2022-09-07T04:43:03.141Z,78.26
2022-09-07T04:45:29.932Z,77.62
2022-09-07T04:47:56.792Z,77.42
2022-09-07T04:50:24.607Z,75.30
2022-09-07T04:52:51.607Z,69.75
2022-09-07T04:55:18.986Z,64.29
2022-09-07T04:57:49.897Z,61.72
2022-09-07T05:00:17.288Z,61.45
2022-09-07T05:02:44.179Z,59.01
2022-09-07T05:05:11.023Z,56.70
2022-09-07T05:07:37.852Z,54.02
2022-09-07T05:10:05.179Z,50.85
2022-09-07T05:12:31.958Z,51.83
2022-09-07T05:14:58.979Z,51.41
2022-09-07T05:17:25.755Z,53.31
2022-09-07T05:19:52.571Z,53.97
2022-09-07T05:22:19.382Z,51.49
2022-09-07T05:24:47.488Z,48.56
2022-09-07T05:27:14.380Z,45.66
2022-09-07T05:32:27.928Z,44.45
2022-09-07T05:34:54.760Z,44.15
2022-09-07T05:37:21.674Z,43.19
2022-09-07T05:39:48.644Z,42.57
2022-09-07T05:42:15.531Z,40.82
2022-09-07T05:47:14.122Z,42.20
2022-09-07T05:49:40.958Z,43.51
2022-09-07T05:52:07.834Z,43.12
2022-09-07T05:54:35.028Z,43.00
2022-09-07T05:57:03.699Z,41.72
2022-09-07T05:59:30.727Z,40.53
2022-09-07T06:01:57.543Z,41.27
2022-09-07T06:04:24.438Z,39.43
2022-09-07T06:07:18.092Z,39.21
2022-09-07T06:12:25.890Z,36.25
2022-09-07T06:14:52.711Z,36.74
2022-09-07T06:17:19.769Z,41.22
2022-09-07T06:19:46.547Z,40.15
2022-09-07T06:22:13.402Z,38.52
2022-09-07T06:24:40.256Z,36.98
2022-09-07T06:27:07.032Z,35.30
2022-09-07T06:29:33.842Z,35.51
2022-09-07T06:34:47.379Z,37.88
2022-09-07T06:37:14.468Z,37.54
2022-09-07T06:39:41.352Z,36.80
2022-09-07T06:42:08.356Z,35.38
2022-09-07T06:44:42.073Z,35.62
2022-09-07T06:47:08.889Z,37.17
2022-09-07T06:49:35.657Z,36.28
2022-09-07T06:52:02.714Z,35.30
2022-09-07T06:57:16.367Z,36.90
2022-09-07T06:59:43.294Z,36.82
2022-09-07T07:02:14.840Z,36.95
2022-09-07T07:04:41.576Z,35.43
2022-09-07T07:07:12.834Z,35.14
2022-09-07T07:09:40.556Z,34.58
2022-09-07T07:12:07.431Z,33.92
2022-09-07T07:14:37.244Z,34.61
2022-09-07T07:17:07.059Z,35.27
2022-09-07T07:19:34.827Z,35.19
2022-09-07T07:24:48.435Z,34.08
2022-09-07T07:27:15.516Z,34.29
2022-09-07T07:29:42.318Z,33.69
2022-09-07T07:32:09.160Z,34.84
2022-09-07T07:34:35.993Z,35.93
2022-09-07T07:37:02.846Z,35.45
2022-09-07T07:42:16.631Z,34.72
2022-09-07T07:44:43.396Z,34.55
2022-09-07T07:47:10.274Z,34.41
2022-09-07T07:49:37.021Z,38.40
2022-09-07T07:54:50.856Z,37.21
2022-09-07T07:57:19.046Z,37.20
2022-09-07T07:59:46.242Z,36.54
2022-09-07T08:02:17.198Z,39.19
2022-09-07T08:04:44.073Z,42.34
2022-09-07T08:07:12.115Z,40.24
2022-09-07T08:09:46.872Z,39.73
2022-09-07T08:12:16.995Z,38.60
2022-09-07T08:14:44.201Z,39.36
2022-09-07T08:17:13.246Z,40.02
2022-09-07T08:19:40.181Z,39.95
2022-09-07T08:22:08.792Z,40.15
2022-09-07T08:24:35.576Z,42.11
2022-09-07T08:27:04.102Z,41.58
2022-09-07T08:29:34.445Z,39.16
2022-09-07T08:32:04.020Z,39.11
2022-09-07T08:34:30.906Z,39.22
2022-09-07T08:36:57.591Z,38.22
2022-09-07T08:39:24.321Z,38.73
2022-09-07T08:42:12.865Z,38.77
2022-09-07T08:45:11.686Z,39.81
2022-09-07T08:47:49.140Z,41.74
2022-09-07T08:50:30.325Z,41.98
2022-09-07T08:52:57.234Z,43.80
2022-09-07T08:55:30.070Z,43.90
2022-09-07T08:58:02.888Z,43.40
2022-09-07T09:00:30.090Z,41.21
2022-09-07T09:06:06.079Z,41.08
2022-09-07T09:09:09.653Z,41.64
2022-09-07T09:11:55.321Z,42.32
2022-09-07T09:14:50.280Z,42.56
2022-09-07T09:17:26.308Z,43.33
2022-09-07T09:20:35.568Z,44.22
2022-09-07T09:23:10.499Z,44.22
2022-09-07T09:25:39.795Z,43.43
2022-09-07T09:28:11.841Z,43.04
2022-09-07T09:30:38.795Z,43.40
2022-09-07T09:33:26.530Z,43.51
2022-09-07T09:35:55.791Z,44.29
2022-09-07T09:38:31.210Z,43.51
2022-09-07T09:41:09.902Z,43.78
2022-09-07T09:43:55.940Z,42.43
2022-09-07T09:46:33.942Z,43.36
2022-09-07T09:49:17.201Z,41.32
2022-09-07T09:54:41.168Z,42.12
2022-09-07T09:57:16.275Z,40.86
2022-09-07T10:00:02.731Z,40.71
2022-09-07T10:05:37.778Z,41.47
2022-09-07T10:08:19.288Z,42.27
2022-09-07T10:10:52.166Z,40.74
2022-09-07T10:13:22.293Z,42.14
2022-09-07T10:15:55.204Z,40.42
2022-09-07T10:18:33.623Z,40.65
2022-09-07T10:21:22.979Z,40.69
2022-09-07T10:24:00.698Z,40.80
2022-09-07T10:26:32.186Z,40.63
2022-09-07T10:29:15.185Z,39.21
2022-09-07T10:31:54.455Z,40.90
2022-09-07T10:34:27.142Z,42.01
2022-09-07T10:37:08.492Z,42.18
2022-09-07T10:39:41.652Z,42.11
2022-09-07T10:42:35.710Z,41.78
2022-09-07T10:45:11.677Z,41.36
2022-09-07T10:48:07.195Z,41.47
2022-09-07T10:50:48.185Z,41.74
2022-09-07T10:53:46.547Z,40.28
2022-09-07T10:56:35.634Z,41.05
2022-09-07T10:59:26.748Z,40.53
2022-09-07T11:01:58.504Z,40.34
2022-09-07T11:05:03.388Z,40.76
2022-09-07T11:07:36.030Z,39.74
2022-09-07T11:10:33.938Z,40.61
2022-09-07T11:13:05.335Z,39.46
2022-09-07T11:15:45.965Z,40.11
2022-09-07T11:18:20.426Z,39.50
2022-09-07T11:20:59.029Z,39.38
2022-09-07T11:23:32.029Z,38.87
2022-09-07T11:26:30.819Z,39.04
2022-09-07T11:32:20.344Z,39.31
2022-09-07T11:34:55.471Z,39.47
2022-09-07T11:37:36.854Z,40.58
2022-09-07T11:40:17.231Z,40.95
2022-09-07T11:43:05.437Z,40.24
2022-09-07T11:45:49.666Z,39.86
2022-09-07T11:48:43.649Z,40.32
2022-09-07T11:51:25.532Z,39.50
2022-09-07T11:54:00.920Z,39.08
2022-09-07T11:56:38.352Z,39.54
2022-09-07T11:59:05.004Z,39.92
2022-09-07T12:01:50.518Z,40.82
2022-09-07T12:04:46.607Z,38.92
2022-09-07T12:07:30.544Z,40.13
2022-09-07T12:10:25.857Z,38.66
2022-09-07T12:13:31.215Z,37.94
2022-09-07T12:16:07.821Z,38.41
2022-09-07T12:19:05.632Z,37.68
2022-09-07T12:21:38.360Z,38.78
2022-09-07T12:24:25.083Z,37.30
2022-09-07T12:26:52.542Z,37.75
2022-09-07T12:29:25.079Z,38.95
2022-09-07T12:32:52.567Z,38.36
2022-09-07T12:34:52.887Z,39.12
2022-09-07T12:37:37.753Z,39.75
2022-09-07T12:40:33.259Z,38.31
2022-09-07T12:43:14.944Z,38.68
2022-09-07T12:45:42.142Z,39.03
2022-09-07T12:48:15.007Z,39.05
2022-09-07T12:51:03.455Z,38.93
2022-09-07T12:53:56.937Z,38.48
2022-09-07T13:00:08.435Z,38.57
2022-09-07T13:03:06.046Z,39.24
2022-09-07T13:05:39.055Z,38.13
2022-09-07T13:08:31.292Z,37.56
2022-09-07T13:11:22.163Z,38.60
2022-09-07T13:14:03.842Z,38.13
2022-09-07T13:19:47.005Z,38.95
2022-09-07T13:22:32.346Z,37.96
2022-09-07T13:25:01.492Z,38.04
2022-09-07T13:28:04.383Z,37.54
2022-09-07T13:30:54.815Z,37.91
2022-09-07T13:33:24.697Z,38.44
2022-09-07T13:36:03.041Z,38.26
2022-09-07T13:38:31.807Z,38.02
2022-09-07T13:41:06.384Z,38.76
2022-09-07T13:43:34.902Z,38.29
2022-09-07T13:46:09.381Z,38.24
2022-09-07T13:48:49.787Z,38.68
2022-09-07T13:51:43.246Z,38.45
2022-09-07T13:54:37.847Z,39.02
2022-09-07T13:57:20.173Z,38.45
2022-09-07T13:59:50.809Z,38.24
2022-09-07T14:02:32.348Z,38.02
2022-09-07T14:05:00.604Z,38.17
2022-09-07T14:07:29.730Z,38.34
2022-09-07T14:10:11.569Z,37.99
2022-09-07T14:12:44.519Z,39.02
2022-09-07T14:15:21.017Z,38.59
2022-09-07T14:17:48.940Z,38.58
2022-09-07T14:20:18.041Z,38.79
2022-09-07T14:22:48.350Z,38.93
2022-09-07T14:25:19.109Z,39.44
2022-09-07T14:27:47.890Z,39.49
2022-09-07T14:30:16.285Z,39.56
2022-09-07T14:32:44.115Z,39.91
2022-09-07T14:35:15.778Z,39.87
2022-09-07T14:37:42.727Z,39.79
2022-09-07T14:40:22.138Z,39.46
2022-09-07T14:42:50.095Z,39.48
2022-09-07T14:45:22.818Z,39.26
2022-09-07T14:47:55.343Z,39.27
2022-09-07T14:50:33.808Z,39.45
2022-09-07T14:56:02.241Z,39.23
2022-09-07T14:58:32.570Z,38.46
2022-09-07T15:04:01.963Z,38.84
2022-09-07T15:09:28.216Z,39.78
2022-09-07T15:12:27.182Z,39.03
2022-09-07T15:15:21.447Z,39.28
2022-09-07T15:17:48.719Z,39.42
2022-09-07T15:20:32.577Z,39.28
2022-09-07T15:22:59.545Z,39.95
2022-09-07T15:25:26.256Z,40.02
2022-09-07T15:27:54.506Z,40.18
2022-09-07T15:30:21.171Z,40.55
2022-09-07T15:32:47.921Z,39.71
2022-09-07T15:35:15.862Z,39.88
2022-09-07T15:40:33.265Z,39.81
2022-09-07T15:43:00.705Z,40.03
2022-09-07T15:45:27.827Z,40.55
2022-09-07T15:47:54.713Z,40.67
2022-09-07T15:50:23.252Z,40.42
2022-09-07T15:52:50.177Z,40.39
2022-09-07T15:55:17.389Z,40.24
2022-09-07T15:57:48.790Z,40.41
2022-09-07T16:00:17.623Z,40.53
2022-09-07T16:05:31.687Z,40.77
2022-09-07T16:10:55.957Z,40.98
2022-09-07T16:13:24.354Z,41.27
2022-09-07T16:15:51.568Z,41.72
2022-09-07T16:18:18.672Z,41.80
2022-09-07T16:20:45.736Z,42.28
2022-09-07T16:23:15.144Z,42.50
2022-09-07T16:25:54.224Z,42.69
2022-09-07T16:28:21.065Z,43.10
2022-09-07T16:30:48.146Z,44.11
2022-09-07T16:33:15.263Z,44.88
2022-09-07T16:35:42.252Z,44.95
2022-09-07T16:40:55.874Z,45.56
2022-09-07T16:43:23.021Z,45.71
2022-09-07T16:46:03.967Z,45.49
2022-09-07T16:48:33.053Z,46.23
2022-09-07T16:51:02.668Z,46.12
2022-09-07T16:53:31.359Z,46.01
2022-09-07T16:56:12.305Z,45.91
2022-09-07T16:58:44.571Z,46.15
2022-09-07T17:01:14.873Z,46.53
2022-09-07T17:03:42.663Z,46.10
2022-09-07T17:06:11.429Z,46.55
2022-09-07T17:08:39.900Z,46.39
2022-09-07T17:11:10.327Z,47.21
2022-09-07T17:13:39.067Z,47.02
2022-09-07T17:16:08.388Z,47.47
2022-09-07T17:21:23.117Z,48.33
2022-09-07T17:23:55.117Z,49.16
2022-09-07T17:26:26.035Z,48.92
2022-09-07T17:29:00.248Z,49.35
2022-09-07T17:34:20.082Z,49.67
2022-09-07T17:36:47.225Z,49.80
2022-09-07T17:39:16.458Z,50.10
2022-09-07T17:41:45.239Z,50.06
2022-09-07T17:44:12.072Z,50.33
2022-09-07T17:46:39.135Z,50.43
2022-09-07T17:49:10.139Z,50.80
2022-09-07T17:51:37.260Z,51.20
2022-09-07T17:54:10.268Z,51.27
2022-09-07T17:56:39.044Z,51.38
2022-09-07T18:01:54.204Z,51.33
2022-09-07T18:04:21.802Z,51.32
2022-09-07T18:06:49.004Z,51.75
2022-09-07T18:09:15.811Z,52.06
2022-09-07T18:11:47.100Z,52.20
2022-09-07T18:14:15.417Z,52.21
2022-09-07T18:16:44.983Z,52.56
2022-09-07T18:19:12.822Z,52.99
2022-09-07T18:21:42.110Z,53.33
2022-09-07T18:24:13.995Z,53.65
2022-09-07T18:26:41.212Z,54.10
2022-09-07T18:29:19.243Z,54.39
2022-09-07T18:31:55.273Z,54.30
2022-09-07T18:34:22.399Z,54.90
2022-09-07T18:36:49.162Z,54.82
2022-09-07T18:39:16.180Z,55.03
2022-09-07T18:41:43.027Z,55.78
2022-09-07T18:46:56.542Z,56.66
2022-09-07T18:49:23.579Z,56.76
2022-09-07T18:54:38.575Z,57.55
2022-09-07T18:57:06.669Z,57.90
2022-09-07T18:59:33.880Z,58.65
2022-09-07T19:02:04.242Z,58.80
2022-09-07T19:07:20.603Z,58.84
2022-09-07T19:09:48.367Z,58.88
2022-09-07T19:12:15.724Z,59.00
2022-09-07T19:14:42.637Z,58.39
2022-09-07T19:17:12.834Z,58.70
2022-09-07T19:19:40.046Z,58.53
2022-09-07T19:22:06.723Z,59.73
2022-09-07T19:24:33.569Z,59.72
2022-09-07T19:27:01.075Z,59.89
2022-09-07T19:29:28.672Z,60.13
2022-09-07T19:32:04.823Z,60.78
2022-09-07T19:34:36.757Z,60.63
2022-09-07T19:37:07.045Z,61.13
2022-09-07T19:39:34.425Z,61.35
2022-09-07T19:42:03.816Z,61.07
2022-09-07T19:44:31.047Z,60.73
2022-09-07T19:46:57.990Z,60.71
2022-09-07T19:49:24.775Z,61.06
2022-09-07T19:51:52.150Z,60.86
2022-09-07T19:54:19.294Z,61.05
2022-09-07T19:56:46.298Z,61.04
2022-09-07T19:59:14.047Z,60.97
2022-09-07T20:01:45.895Z,61.04
2022-09-07T20:04:18.953Z,61.42
2022-09-07T20:06:48.149Z,62.08
2022-09-07T20:09:14.948Z,62.25
2022-09-07T20:11:46.130Z,62.31
2022-09-07T20:14:14.702Z,62.93
2022-09-07T20:16:41.872Z,63.53
2022-09-07T20:19:11.037Z,63.51
2022-09-07T20:21:37.974Z,63.23
2022-09-07T20:24:04.834Z,63.27
2022-09-07T20:26:32.524Z,63.53
2022-09-07T20:29:16.727Z,62.96
2022-09-07T20:31:47.310Z,63.33
2022-09-07T20:34:14.411Z,63.99
2022-09-07T20:36:41.425Z,63.82
2022-09-07T20:39:08.677Z,63.99
2022-09-07T20:41:35.440Z,64.47
2022-09-07T20:44:04.199Z,64.16
2022-09-07T20:46:31.639Z,64.37
2022-09-07T20:48:58.838Z,64.84
2022-09-07T20:51:26.092Z,65.37
2022-09-07T20:53:53.351Z,66.01
2022-09-07T20:56:25.913Z,65.80
2022-09-07T20:59:00.487Z,65.86
2022-09-07T21:01:28.947Z,65.94
2022-09-07T21:03:58.073Z,66.13
2022-09-07T21:06:26.359Z,66.14
2022-09-07T21:08:54.670Z,66.57
2022-09-07T21:11:33.654Z,67.18
2022-09-07T21:14:08.524Z,67.29
2022-09-07T21:16:36.408Z,66.88
2022-09-07T21:19:05.945Z,66.72
2022-09-07T21:21:39.162Z,65.62
2022-09-07T21:24:07.885Z,65.70
2022-09-07T21:26:35.028Z,65.90
2022-09-07T21:29:05.053Z,66.34
2022-09-07T21:31:33.631Z,66.40
2022-09-07T21:34:01.743Z,66.86
2022-09-07T21:36:29.347Z,67.20
2022-09-07T21:38:56.719Z,67.19
2022-09-07T21:41:25.285Z,67.39
2022-09-07T21:43:59.624Z,67.95
2022-09-07T21:46:27.378Z,68.13
2022-09-07T21:48:55.860Z,67.65
2022-09-07T21:51:24.182Z,67.34
2022-09-07T21:53:55.600Z,67.27
2022-09-07T21:56:22.369Z,67.68
2022-09-07T21:58:53.987Z,67.80
2022-09-07T22:01:21.569Z,68.50
2022-09-07T22:03:52.880Z,68.35
2022-09-07T22:06:19.622Z,68.10
2022-09-07T22:08:46.708Z,69.06
2022-09-07T22:11:17.436Z,69.66
2022-09-07T22:13:44.681Z,70.16
2022-09-07T22:16:12.661Z,69.76
2022-09-07T22:18:43.557Z,69.99
2022-09-07T22:21:16.135Z,70.27
2022-09-07T22:23:48.802Z,70.29
2022-09-07T22:26:19.438Z,70.29
2022-09-07T22:28:46.827Z,69.68
2022-09-07T22:31:17.245Z,70.48
2022-09-07T22:33:45.403Z,70.65
2022-09-07T22:36:24.107Z,70.84
2022-09-07T22:38:53.273Z,71.11
2022-09-07T22:41:23.131Z,71.01
2022-09-07T22:43:51.073Z,70.42
2022-09-07T22:46:20.464Z,70.74
2022-09-07T22:48:47.436Z,70.86
2022-09-07T22:51:14.576Z,71.12
2022-09-07T22:53:43.066Z,71.51
2022-09-07T22:56:18.594Z,71.69
2022-09-07T22:58:49.853Z,72.14
2022-09-07T23:01:16.851Z,71.86
2022-09-07T23:03:44.678Z,71.83
2022-09-07T23:06:30.426Z,71.72
2022-09-07T23:08:59.631Z,71.11
2022-09-07T23:11:26.894Z,70.95
2022-09-07T23:13:55.898Z,70.13
2022-09-07T23:16:22.862Z,70.72
2022-09-07T23:18:49.984Z,71.30
2022-09-07T23:21:17.121Z,71.81
2022-09-07T23:23:44.479Z,71.93
2022-09-07T23:26:11.387Z,72.00
2022-09-07T23:28:38.077Z,72.25
2022-09-07T23:31:04.910Z,72.26
2022-09-07T23:33:31.899Z,72.47
2022-09-07T23:36:04.659Z,72.37
2022-09-07T23:38:32.485Z,72.47
2022-09-07T23:41:00.602Z,72.62
2022-09-07T23:43:28.761Z,72.75
2022-09-07T23:45:56.401Z,72.51
2022-09-07T23:48:23.747Z,72.61
2022-09-07T23:50:50.494Z,73.09
2022-09-07T23:53:18.132Z,73.05
2022-09-07T23:55:46.010Z,73.07
2022-09-07T23:58:12.770Z,73.28
